sensor_id;sensor_type;location;lat;lon;timestamp;P1;durP1;ratioP1;P2;durP2;ratioP2
60464;SDS011;46314;52.392;9.758;2023-04-24T00:01:37;1.35;;;1.20;;
60464;SDS011;46314;52.392;9.758;2023-04-24T00:04:03;3.15;;;1.08;;
60464;SDS011;46314;52.392;9.758;2023-04-24T00:06:30;1.35;;;0.95;;
60464;SDS011;46314;52.392;9.758;2023-04-24T00:08:57;1.08;;;0.90;;
60464;SDS011;46314;52.392;9.758;2023-04-24T00:11:23;1.27;;;0.80;;
60464;SDS011;46314;52.392;9.758;2023-04-24T00:13:50;0.90;;;0.90;;
60464;SDS011;46314;52.392;9.758;2023-04-24T00:16:17;1.67;;;1.10;;
60464;SDS011;46314;52.392;9.758;2023-04-24T00:18:44;0.80;;;0.80;;
60464;SDS011;46314;52.392;9.758;2023-04-24T00:21:10;2.00;;;0.95;;
60464;SDS011;46314;52.392;9.758;2023-04-24T00:23:37;1.45;;;1.00;;
60464;SDS011;46314;52.392;9.758;2023-04-24T00:26:03;2.65;;;1.17;;
60464;SDS011;46314;52.392;9.758;2023-04-24T00:28:30;2.30;;;1.00;;
60464;SDS011;46314;52.392;9.758;2023-04-24T00:30:56;1.85;;;1.23;;
60464;SDS011;46314;52.392;9.758;2023-04-24T00:33:24;1.00;;;0.85;;
60464;SDS011;46314;52.392;9.758;2023-04-24T00:35:51;1.50;;;1.20;;
60464;SDS011;46314;52.392;9.758;2023-04-24T00:38:17;2.35;;;1.00;;
60464;SDS011;46314;52.392;9.758;2023-04-24T00:40:44;0.88;;;0.88;;
60464;SDS011;46314;52.392;9.758;2023-04-24T00:43:10;3.20;;;1.00;;
60464;SDS011;46314;52.392;9.758;2023-04-24T00:45:37;1.67;;;0.80;;
60464;SDS011;46314;52.392;9.758;2023-04-24T00:48:03;1.20;;;1.10;;
60464;SDS011;46314;52.392;9.758;2023-04-24T00:50:32;1.83;;;0.80;;
60464;SDS011;46314;52.392;9.758;2023-04-24T00:52:58;2.67;;;1.20;;
60464;SDS011;46314;52.392;9.758;2023-04-24T00:55:25;2.58;;;1.10;;
60464;SDS011;46314;52.392;9.758;2023-04-24T00:57:51;2.55;;;1.30;;
60464;SDS011;46314;52.392;9.758;2023-04-24T01:00:18;1.00;;;0.70;;
60464;SDS011;46314;52.392;9.758;2023-04-24T01:02:45;1.05;;;0.80;;
60464;SDS011;46314;52.392;9.758;2023-04-24T01:05:12;2.08;;;1.05;;
60464;SDS011;46314;52.392;9.758;2023-04-24T01:07:42;3.42;;;1.10;;
60464;SDS011;46314;52.392;9.758;2023-04-24T01:10:10;1.00;;;0.90;;
60464;SDS011;46314;52.392;9.758;2023-04-24T01:12:38;1.25;;;1.15;;
60464;SDS011;46314;52.392;9.758;2023-04-24T01:15:05;2.83;;;0.90;;
60464;SDS011;46314;52.392;9.758;2023-04-24T01:17:33;1.50;;;1.00;;
60464;SDS011;46314;52.392;9.758;2023-04-24T01:20:00;1.75;;;1.00;;
60464;SDS011;46314;52.392;9.758;2023-04-24T01:22:28;1.02;;;0.85;;
60464;SDS011;46314;52.392;9.758;2023-04-24T01:24:54;1.10;;;1.00;;
60464;SDS011;46314;52.392;9.758;2023-04-24T01:27:21;4.97;;;1.58;;
60464;SDS011;46314;52.392;9.758;2023-04-24T01:29:47;2.28;;;1.02;;
60464;SDS011;46314;52.392;9.758;2023-04-24T01:32:14;1.23;;;1.13;;
60464;SDS011;46314;52.392;9.758;2023-04-24T01:34:41;2.60;;;1.17;;
60464;SDS011;46314;52.392;9.758;2023-04-24T01:37:08;1.40;;;1.20;;
60464;SDS011;46314;52.392;9.758;2023-04-24T01:39:36;1.33;;;0.98;;
60464;SDS011;46314;52.392;9.758;2023-04-24T01:42:03;1.13;;;0.80;;
60464;SDS011;46314;52.392;9.758;2023-04-24T01:44:30;1.98;;;0.90;;
60464;SDS011;46314;52.392;9.758;2023-04-24T01:46:58;1.77;;;0.88;;
60464;SDS011;46314;52.392;9.758;2023-04-24T01:49:24;1.63;;;1.23;;
60464;SDS011;46314;52.392;9.758;2023-04-24T01:51:51;1.13;;;1.10;;
60464;SDS011;46314;52.392;9.758;2023-04-24T01:54:17;1.20;;;1.10;;
60464;SDS011;46314;52.392;9.758;2023-04-24T01:56:45;2.13;;;1.33;;
60464;SDS011;46314;52.392;9.758;2023-04-24T01:59:11;2.15;;;0.98;;
60464;SDS011;46314;52.392;9.758;2023-04-24T02:01:38;1.90;;;1.10;;
60464;SDS011;46314;52.392;9.758;2023-04-24T02:04:05;1.88;;;1.20;;
60464;SDS011;46314;52.392;9.758;2023-04-24T02:06:34;2.15;;;1.42;;
60464;SDS011;46314;52.392;9.758;2023-04-24T02:09:01;1.92;;;1.10;;
60464;SDS011;46314;52.392;9.758;2023-04-24T02:11:27;1.23;;;1.02;;
60464;SDS011;46314;52.392;9.758;2023-04-24T02:13:55;1.48;;;1.13;;
60464;SDS011;46314;52.392;9.758;2023-04-24T02:16:21;1.73;;;1.00;;
60464;SDS011;46314;52.392;9.758;2023-04-24T02:18:48;1.55;;;1.20;;
60464;SDS011;46314;52.392;9.758;2023-04-24T02:21:14;1.88;;;1.15;;
60464;SDS011;46314;52.392;9.758;2023-04-24T02:23:40;1.00;;;0.80;;
60464;SDS011;46314;52.392;9.758;2023-04-24T02:26:07;1.60;;;1.30;;
60464;SDS011;46314;52.392;9.758;2023-04-24T02:28:33;0.98;;;0.88;;
60464;SDS011;46314;52.392;9.758;2023-04-24T02:31:01;1.20;;;1.10;;
60464;SDS011;46314;52.392;9.758;2023-04-24T02:33:28;1.73;;;1.10;;
60464;SDS011;46314;52.392;9.758;2023-04-24T02:35:55;1.17;;;0.75;;
60464;SDS011;46314;52.392;9.758;2023-04-24T02:38:21;3.38;;;0.93;;
60464;SDS011;46314;52.392;9.758;2023-04-24T02:40:48;1.50;;;1.20;;
60464;SDS011;46314;52.392;9.758;2023-04-24T02:43:14;1.13;;;1.00;;
60464;SDS011;46314;52.392;9.758;2023-04-24T02:45:41;0.90;;;0.90;;
60464;SDS011;46314;52.392;9.758;2023-04-24T02:48:09;1.10;;;1.00;;
60464;SDS011;46314;52.392;9.758;2023-04-24T02:50:35;1.20;;;0.90;;
60464;SDS011;46314;52.392;9.758;2023-04-24T02:53:01;2.30;;;1.20;;
60464;SDS011;46314;52.392;9.758;2023-04-24T02:55:28;1.73;;;0.93;;
60464;SDS011;46314;52.392;9.758;2023-04-24T02:57:54;1.20;;;1.00;;
60464;SDS011;46314;52.392;9.758;2023-04-24T03:00:21;1.10;;;1.00;;
60464;SDS011;46314;52.392;9.758;2023-04-24T03:02:47;1.05;;;0.88;;
60464;SDS011;46314;52.392;9.758;2023-04-24T03:05:15;1.15;;;0.95;;
60464;SDS011;46314;52.392;9.758;2023-04-24T03:07:42;1.00;;;0.90;;
60464;SDS011;46314;52.392;9.758;2023-04-24T03:10:09;1.10;;;1.00;;
60464;SDS011;46314;52.392;9.758;2023-04-24T03:12:35;1.77;;;1.17;;
60464;SDS011;46314;52.392;9.758;2023-04-24T03:15:02;1.10;;;1.00;;
60464;SDS011;46314;52.392;9.758;2023-04-24T03:17:29;1.30;;;0.95;;
60464;SDS011;46314;52.392;9.758;2023-04-24T03:19:55;0.70;;;0.70;;
60464;SDS011;46314;52.392;9.758;2023-04-24T03:22:23;1.15;;;0.90;;
60464;SDS011;46314;52.392;9.758;2023-04-24T03:24:50;0.80;;;0.80;;
60464;SDS011;46314;52.392;9.758;2023-04-24T03:27:16;0.68;;;0.68;;
60464;SDS011;46314;52.392;9.758;2023-04-24T03:29:43;1.13;;;0.65;;
60464;SDS011;46314;52.392;9.758;2023-04-24T03:32:09;1.02;;;0.80;;
60464;SDS011;46314;52.392;9.758;2023-04-24T03:34:36;2.03;;;0.70;;
60464;SDS011;46314;52.392;9.758;2023-04-24T03:37:02;1.08;;;0.82;;
60464;SDS011;46314;52.392;9.758;2023-04-24T03:39:30;1.48;;;1.00;;
60464;SDS011;46314;52.392;9.758;2023-04-24T03:41:56;1.10;;;0.65;;
60464;SDS011;46314;52.392;9.758;2023-04-24T03:44:23;2.00;;;0.88;;
60464;SDS011;46314;52.392;9.758;2023-04-24T03:46:49;0.63;;;0.63;;
60464;SDS011;46314;52.392;9.758;2023-04-24T03:49:15;1.35;;;0.80;;
60464;SDS011;46314;52.392;9.758;2023-04-24T03:51:42;0.90;;;0.82;;
60464;SDS011;46314;52.392;9.758;2023-04-24T03:54:08;1.33;;;0.90;;
60464;SDS011;46314;52.392;9.758;2023-04-24T03:56:36;1.77;;;0.88;;
60464;SDS011;46314;52.392;9.758;2023-04-24T03:59:02;1.48;;;1.25;;
60464;SDS011;46314;52.392;9.758;2023-04-24T04:01:29;1.25;;;1.00;;
60464;SDS011;46314;52.392;9.758;2023-04-24T04:03:55;1.85;;;1.20;;
60464;SDS011;46314;52.392;9.758;2023-04-24T04:06:22;2.28;;;1.00;;
60464;SDS011;46314;52.392;9.758;2023-04-24T04:08:49;1.25;;;0.75;;
60464;SDS011;46314;52.392;9.758;2023-04-24T04:11:15;1.35;;;1.08;;
60464;SDS011;46314;52.392;9.758;2023-04-24T04:13:43;2.83;;;1.45;;
60464;SDS011;46314;52.392;9.758;2023-04-24T04:16:09;2.25;;;1.13;;
60464;SDS011;46314;52.392;9.758;2023-04-24T04:18:35;3.50;;;1.20;;
60464;SDS011;46314;52.392;9.758;2023-04-24T04:21:02;2.13;;;1.10;;
60464;SDS011;46314;52.392;9.758;2023-04-24T04:23:29;2.67;;;1.42;;
60464;SDS011;46314;52.392;9.758;2023-04-24T04:25:55;2.15;;;1.20;;
60464;SDS011;46314;52.392;9.758;2023-04-24T04:28:21;1.73;;;0.93;;
60464;SDS011;46314;52.392;9.758;2023-04-24T04:30:49;1.50;;;0.98;;
60464;SDS011;46314;52.392;9.758;2023-04-24T04:33:16;2.40;;;1.42;;
60464;SDS011;46314;52.392;9.758;2023-04-24T04:35:42;2.03;;;1.00;;
60464;SDS011;46314;52.392;9.758;2023-04-24T04:38:08;3.92;;;1.25;;
60464;SDS011;46314;52.392;9.758;2023-04-24T04:40:35;1.25;;;1.08;;
60464;SDS011;46314;52.392;9.758;2023-04-24T04:43:01;1.20;;;1.00;;
60464;SDS011;46314;52.392;9.758;2023-04-24T04:45:28;1.77;;;1.20;;
60464;SDS011;46314;52.392;9.758;2023-04-24T04:47:55;2.92;;;1.00;;
60464;SDS011;46314;52.392;9.758;2023-04-24T04:50:22;1.85;;;1.00;;
60464;SDS011;46314;52.392;9.758;2023-04-24T04:52:49;2.13;;;1.10;;
60464;SDS011;46314;52.392;9.758;2023-04-24T04:55:15;2.70;;;1.20;;
60464;SDS011;46314;52.392;9.758;2023-04-24T04:57:42;3.08;;;1.10;;
60464;SDS011;46314;52.392;9.758;2023-04-24T05:00:09;0.80;;;0.80;;
60464;SDS011;46314;52.392;9.758;2023-04-24T05:02:36;1.63;;;1.15;;
60464;SDS011;46314;52.392;9.758;2023-04-24T05:05:04;1.63;;;1.10;;
60464;SDS011;46314;52.392;9.758;2023-04-24T05:07:31;1.88;;;1.20;;
60464;SDS011;46314;52.392;9.758;2023-04-24T05:09:58;3.70;;;1.40;;
60464;SDS011;46314;52.392;9.758;2023-04-24T05:12:24;1.58;;;1.02;;
60464;SDS011;46314;52.392;9.758;2023-04-24T05:14:51;4.85;;;1.17;;
60464;SDS011;46314;52.392;9.758;2023-04-24T05:17:17;3.22;;;1.35;;
60464;SDS011;46314;52.392;9.758;2023-04-24T05:19:44;1.27;;;1.00;;
60464;SDS011;46314;52.392;9.758;2023-04-24T05:22:12;1.73;;;1.10;;
60464;SDS011;46314;52.392;9.758;2023-04-24T05:24:38;1.70;;;0.95;;
60464;SDS011;46314;52.392;9.758;2023-04-24T05:27:05;2.80;;;1.30;;
60464;SDS011;46314;52.392;9.758;2023-04-24T05:29:31;2.75;;;1.20;;
60464;SDS011;46314;52.392;9.758;2023-04-24T05:31:58;1.52;;;1.30;;
60464;SDS011;46314;52.392;9.758;2023-04-24T05:34:25;2.38;;;1.42;;
60464;SDS011;46314;52.392;9.758;2023-04-24T05:36:52;2.92;;;1.15;;
60464;SDS011;46314;52.392;9.758;2023-04-24T05:39:20;1.30;;;1.20;;
60464;SDS011;46314;52.392;9.758;2023-04-24T05:41:46;1.98;;;1.25;;
60464;SDS011;46314;52.392;9.758;2023-04-24T05:44:13;2.03;;;1.40;;
60464;SDS011;46314;52.392;9.758;2023-04-24T05:46:39;3.83;;;1.38;;
60464;SDS011;46314;52.392;9.758;2023-04-24T05:49:06;1.48;;;1.05;;
60464;SDS011;46314;52.392;9.758;2023-04-24T05:51:32;1.55;;;1.40;;
60464;SDS011;46314;52.392;9.758;2023-04-24T05:53:58;1.85;;;1.40;;
60464;SDS011;46314;52.392;9.758;2023-04-24T05:56:26;2.17;;;1.20;;
60464;SDS011;46314;52.392;9.758;2023-04-24T05:58:53;0.98;;;0.93;;
60464;SDS011;46314;52.392;9.758;2023-04-24T06:01:19;2.08;;;1.27;;
60464;SDS011;46314;52.392;9.758;2023-04-24T06:03:46;2.25;;;1.10;;
60464;SDS011;46314;52.392;9.758;2023-04-24T06:06:13;2.22;;;1.52;;
60464;SDS011;46314;52.392;9.758;2023-04-24T06:08:39;1.98;;;1.33;;
60464;SDS011;46314;52.392;9.758;2023-04-24T06:11:06;3.13;;;1.58;;
60464;SDS011;46314;52.392;9.758;2023-04-24T06:13:33;2.58;;;1.83;;
60464;SDS011;46314;52.392;9.758;2023-04-24T06:16:00;1.40;;;1.23;;
60464;SDS011;46314;52.392;9.758;2023-04-24T06:18:29;2.42;;;1.55;;
60464;SDS011;46314;52.392;9.758;2023-04-24T06:20:55;2.08;;;1.90;;
60464;SDS011;46314;52.392;9.758;2023-04-24T06:23:22;2.78;;;1.20;;
60464;SDS011;46314;52.392;9.758;2023-04-24T06:25:48;1.70;;;1.60;;
60464;SDS011;46314;52.392;9.758;2023-04-24T06:28:14;1.67;;;1.20;;
60464;SDS011;46314;52.392;9.758;2023-04-24T06:30:42;1.52;;;1.42;;
60464;SDS011;46314;52.392;9.758;2023-04-24T06:33:09;2.83;;;1.83;;
60464;SDS011;46314;52.392;9.758;2023-04-24T06:35:46;2.20;;;1.50;;
60464;SDS011;46314;52.392;9.758;2023-04-24T06:38:12;3.45;;;1.80;;
60464;SDS011;46314;52.392;9.758;2023-04-24T06:40:39;1.95;;;1.70;;
60464;SDS011;46314;52.392;9.758;2023-04-24T06:43:05;3.22;;;1.75;;
60464;SDS011;46314;52.392;9.758;2023-04-24T06:45:32;5.15;;;1.92;;
60464;SDS011;46314;52.392;9.758;2023-04-24T06:48:00;2.33;;;1.95;;
60464;SDS011;46314;52.392;9.758;2023-04-24T06:50:26;2.53;;;1.90;;
60464;SDS011;46314;52.392;9.758;2023-04-24T06:52:53;2.65;;;1.63;;
60464;SDS011;46314;52.392;9.758;2023-04-24T06:55:19;4.53;;;2.45;;
60464;SDS011;46314;52.392;9.758;2023-04-24T06:57:46;2.60;;;2.10;;
60464;SDS011;46314;52.392;9.758;2023-04-24T07:00:13;3.78;;;2.33;;
60464;SDS011;46314;52.392;9.758;2023-04-24T07:02:49;3.40;;;3.08;;
60464;SDS011;46314;52.392;9.758;2023-04-24T07:05:17;3.22;;;2.65;;
60464;SDS011;46314;52.392;9.758;2023-04-24T07:07:43;4.55;;;3.53;;
60464;SDS011;46314;52.392;9.758;2023-04-24T07:10:09;4.13;;;3.72;;
60464;SDS011;46314;52.392;9.758;2023-04-24T07:12:36;4.80;;;3.75;;
60464;SDS011;46314;52.392;9.758;2023-04-24T07:15:02;5.47;;;4.65;;
60464;SDS011;46314;52.392;9.758;2023-04-24T07:17:29;4.47;;;4.07;;
60464;SDS011;46314;52.392;9.758;2023-04-24T07:19:56;6.78;;;4.72;;
60464;SDS011;46314;52.392;9.758;2023-04-24T07:22:24;5.43;;;4.03;;
60464;SDS011;46314;52.392;9.758;2023-04-24T07:24:50;5.15;;;4.65;;
60464;SDS011;46314;52.392;9.758;2023-04-24T07:27:17;7.47;;;5.03;;
60464;SDS011;46314;52.392;9.758;2023-04-24T07:29:43;5.55;;;4.57;;
60464;SDS011;46314;52.392;9.758;2023-04-24T07:32:10;5.20;;;4.70;;
60464;SDS011;46314;52.392;9.758;2023-04-24T07:34:37;5.47;;;4.97;;
60464;SDS011;46314;52.392;9.758;2023-04-24T07:37:03;8.15;;;5.63;;
60464;SDS011;46314;52.392;9.758;2023-04-24T07:39:31;5.55;;;4.70;;
60464;SDS011;46314;52.392;9.758;2023-04-24T07:41:58;5.00;;;4.50;;
60464;SDS011;46314;52.392;9.758;2023-04-24T07:44:24;5.25;;;4.75;;
60464;SDS011;46314;52.392;9.758;2023-04-24T07:46:51;5.82;;;5.22;;
60464;SDS011;46314;52.392;9.758;2023-04-24T07:49:17;6.60;;;5.15;;
60464;SDS011;46314;52.392;9.758;2023-04-24T07:51:45;6.43;;;5.28;;
60464;SDS011;46314;52.392;9.758;2023-04-24T07:54:11;6.50;;;5.80;;
60464;SDS011;46314;52.392;9.758;2023-04-24T07:56:39;6.40;;;5.80;;
60464;SDS011;46314;52.392;9.758;2023-04-24T07:59:06;6.47;;;5.88;;
60464;SDS011;46314;52.392;9.758;2023-04-24T08:01:33;7.80;;;6.03;;
60464;SDS011;46314;52.392;9.758;2023-04-24T08:03:59;9.68;;;6.50;;
60464;SDS011;46314;52.392;9.758;2023-04-24T08:06:26;7.40;;;6.70;;
60464;SDS011;46314;52.392;9.758;2023-04-24T08:08:53;8.88;;;6.65;;
60464;SDS011;46314;52.392;9.758;2023-04-24T08:11:19;8.05;;;7.25;;
60464;SDS011;46314;52.392;9.758;2023-04-24T08:13:49;8.80;;;7.05;;
60464;SDS011;46314;52.392;9.758;2023-04-24T08:16:15;7.25;;;6.55;;
60464;SDS011;46314;52.392;9.758;2023-04-24T08:18:42;9.05;;;8.25;;
60464;SDS011;46314;52.392;9.758;2023-04-24T08:21:08;8.50;;;7.63;;
60464;SDS011;46314;52.392;9.758;2023-04-24T08:23:35;9.75;;;8.35;;
60464;SDS011;46314;52.392;9.758;2023-04-24T08:26:01;8.38;;;7.57;;
60464;SDS011;46314;52.392;9.758;2023-04-24T08:28:28;7.68;;;6.97;;
60464;SDS011;46314;52.392;9.758;2023-04-24T08:30:55;8.75;;;7.78;;
60464;SDS011;46314;52.392;9.758;2023-04-24T08:33:22;8.23;;;6.97;;
60464;SDS011;46314;52.392;9.758;2023-04-24T08:35:49;8.07;;;7.28;;
60464;SDS011;46314;52.392;9.758;2023-04-24T08:38:16;7.15;;;6.45;;
60464;SDS011;46314;52.392;9.758;2023-04-24T08:40:43;7.85;;;7.05;;
60464;SDS011;46314;52.392;9.758;2023-04-24T08:43:10;7.15;;;6.45;;
60464;SDS011;46314;52.392;9.758;2023-04-24T08:45:38;8.52;;;6.15;;
60464;SDS011;46314;52.392;9.758;2023-04-24T08:48:06;7.60;;;6.75;;
60464;SDS011;46314;52.392;9.758;2023-04-24T08:50:41;6.93;;;5.93;;
60464;SDS011;46314;52.392;9.758;2023-04-24T08:53:09;6.22;;;5.63;;
60464;SDS011;46314;52.392;9.758;2023-04-24T08:55:35;7.35;;;5.50;;
60464;SDS011;46314;52.392;9.758;2023-04-24T08:58:03;5.88;;;5.30;;
60464;SDS011;46314;52.392;9.758;2023-04-24T09:00:30;6.00;;;5.43;;
60464;SDS011;46314;52.392;9.758;2023-04-24T09:03:00;6.00;;;5.40;;
60464;SDS011;46314;52.392;9.758;2023-04-24T09:05:30;5.55;;;5.00;;
60464;SDS011;46314;52.392;9.758;2023-04-24T09:07:57;4.72;;;3.95;;
60464;SDS011;46314;52.392;9.758;2023-04-24T09:10:27;4.05;;;3.50;;
60464;SDS011;46314;52.392;9.758;2023-04-24T09:12:54;5.70;;;3.60;;
60464;SDS011;46314;52.392;9.758;2023-04-24T09:15:22;5.60;;;4.35;;
60464;SDS011;46314;52.392;9.758;2023-04-24T09:17:50;6.28;;;3.95;;
60464;SDS011;46314;52.392;9.758;2023-04-24T09:20:16;4.53;;;3.70;;
60464;SDS011;46314;52.392;9.758;2023-04-24T09:22:44;4.03;;;3.70;;
60464;SDS011;46314;52.392;9.758;2023-04-24T09:25:11;3.22;;;2.92;;
60464;SDS011;46314;52.392;9.758;2023-04-24T09:27:41;3.53;;;3.22;;
60464;SDS011;46314;52.392;9.758;2023-04-24T09:30:08;3.78;;;3.30;;
60464;SDS011;46314;52.392;9.758;2023-04-24T09:32:35;5.00;;;3.50;;
60464;SDS011;46314;52.392;9.758;2023-04-24T09:35:05;4.78;;;3.75;;
60464;SDS011;46314;52.392;9.758;2023-04-24T09:37:34;4.75;;;3.60;;
60464;SDS011;46314;52.392;9.758;2023-04-24T09:40:10;4.78;;;3.60;;
60464;SDS011;46314;52.392;9.758;2023-04-24T09:42:38;3.78;;;3.47;;
60464;SDS011;46314;52.392;9.758;2023-04-24T09:45:08;3.88;;;3.58;;
60464;SDS011;46314;52.392;9.758;2023-04-24T09:47:37;3.88;;;3.20;;
60464;SDS011;46314;52.392;9.758;2023-04-24T09:50:12;4.13;;;3.72;;
60464;SDS011;46314;52.392;9.758;2023-04-24T09:52:41;4.07;;;3.38;;
60464;SDS011;46314;52.392;9.758;2023-04-24T09:55:13;4.40;;;3.67;;
60464;SDS011;46314;52.392;9.758;2023-04-24T09:57:53;3.58;;;3.28;;
60464;SDS011;46314;52.392;9.758;2023-04-24T10:00:21;5.57;;;4.30;;
60464;SDS011;46314;52.392;9.758;2023-04-24T10:02:57;5.13;;;3.40;;
60464;SDS011;46314;52.392;9.758;2023-04-24T10:05:29;4.78;;;3.72;;
60464;SDS011;46314;52.392;9.758;2023-04-24T10:07:57;4.15;;;3.33;;
60464;SDS011;46314;52.392;9.758;2023-04-24T10:10:27;4.03;;;3.55;;
60464;SDS011;46314;52.392;9.758;2023-04-24T10:12:54;4.35;;;3.72;;
60464;SDS011;46314;52.392;9.758;2023-04-24T10:15:21;5.20;;;3.42;;
60464;SDS011;46314;52.392;9.758;2023-04-24T10:17:48;4.53;;;3.40;;
60464;SDS011;46314;52.392;9.758;2023-04-24T10:20:16;3.97;;;3.58;;
60464;SDS011;46314;52.392;9.758;2023-04-24T10:22:43;3.75;;;3.40;;
60464;SDS011;46314;52.392;9.758;2023-04-24T10:25:11;5.05;;;3.67;;
60464;SDS011;46314;52.392;9.758;2023-04-24T10:27:40;3.72;;;3.42;;
60464;SDS011;46314;52.392;9.758;2023-04-24T10:30:07;3.47;;;3.17;;
60464;SDS011;46314;52.392;9.758;2023-04-24T10:32:35;3.90;;;3.60;;
60464;SDS011;46314;52.392;9.758;2023-04-24T10:35:01;5.32;;;3.55;;
60464;SDS011;46314;52.392;9.758;2023-04-24T10:37:28;3.72;;;3.28;;
60464;SDS011;46314;52.392;9.758;2023-04-24T10:40:03;3.47;;;2.70;;
60464;SDS011;46314;52.392;9.758;2023-04-24T10:42:30;3.83;;;3.13;;
60464;SDS011;46314;52.392;9.758;2023-04-24T10:44:58;5.47;;;3.47;;
60464;SDS011;46314;52.392;9.758;2023-04-24T10:47:25;4.35;;;3.30;;
60464;SDS011;46314;52.392;9.758;2023-04-24T10:49:51;3.45;;;3.15;;
60464;SDS011;46314;52.392;9.758;2023-04-24T10:52:18;3.17;;;2.70;;
60464;SDS011;46314;52.392;9.758;2023-04-24T10:54:45;3.38;;;3.08;;
60464;SDS011;46314;52.392;9.758;2023-04-24T10:57:25;3.20;;;2.85;;
60464;SDS011;46314;52.392;9.758;2023-04-24T11:02:40;4.05;;;2.30;;
60464;SDS011;46314;52.392;9.758;2023-04-24T11:05:07;2.90;;;2.40;;
60464;SDS011;46314;52.392;9.758;2023-04-24T11:10:34;2.55;;;2.30;;
60464;SDS011;46314;52.392;9.758;2023-04-24T11:13:04;6.25;;;2.47;;
60464;SDS011;46314;52.392;9.758;2023-04-24T11:15:32;3.45;;;2.53;;
60464;SDS011;46314;52.392;9.758;2023-04-24T11:17:58;3.80;;;2.92;;
60464;SDS011;46314;52.392;9.758;2023-04-24T11:20:25;3.35;;;2.67;;
60464;SDS011;46314;52.392;9.758;2023-04-24T11:22:54;2.50;;;2.28;;
60464;SDS011;46314;52.392;9.758;2023-04-24T11:25:21;4.00;;;2.90;;
60464;SDS011;46314;52.392;9.758;2023-04-24T11:27:48;5.03;;;3.30;;
60464;SDS011;46314;52.392;9.758;2023-04-24T11:30:16;3.22;;;2.30;;
60464;SDS011;46314;52.392;9.758;2023-04-24T11:32:47;3.83;;;2.20;;
60464;SDS011;46314;52.392;9.758;2023-04-24T11:35:17;3.53;;;2.28;;
60464;SDS011;46314;52.392;9.758;2023-04-24T11:37:45;2.75;;;2.03;;
60464;SDS011;46314;52.392;9.758;2023-04-24T11:40:33;3.08;;;2.17;;
60464;SDS011;46314;52.392;9.758;2023-04-24T11:42:59;2.92;;;1.80;;
60464;SDS011;46314;52.392;9.758;2023-04-24T11:45:26;2.97;;;1.92;;
60464;SDS011;46314;52.392;9.758;2023-04-24T11:47:55;2.75;;;1.35;;
60464;SDS011;46314;52.392;9.758;2023-04-24T11:50:22;2.47;;;1.58;;
60464;SDS011;46314;52.392;9.758;2023-04-24T11:52:50;2.03;;;1.60;;
60464;SDS011;46314;52.392;9.758;2023-04-24T11:55:26;2.28;;;1.52;;
60464;SDS011;46314;52.392;9.758;2023-04-24T11:57:55;1.88;;;1.48;;
60464;SDS011;46314;52.392;9.758;2023-04-24T12:00:23;1.80;;;1.40;;
60464;SDS011;46314;52.392;9.758;2023-04-24T12:02:50;2.30;;;1.60;;
60464;SDS011;46314;52.392;9.758;2023-04-24T12:05:22;1.50;;;1.40;;
60464;SDS011;46314;52.392;9.758;2023-04-24T12:07:50;1.48;;;1.30;;
60464;SDS011;46314;52.392;9.758;2023-04-24T12:10:19;1.67;;;1.40;;
60464;SDS011;46314;52.392;9.758;2023-04-24T12:12:47;2.05;;;1.40;;
60464;SDS011;46314;52.392;9.758;2023-04-24T12:15:13;2.25;;;1.27;;
60464;SDS011;46314;52.392;9.758;2023-04-24T12:17:42;1.55;;;1.40;;
60464;SDS011;46314;52.392;9.758;2023-04-24T12:20:09;1.75;;;1.17;;
60464;SDS011;46314;52.392;9.758;2023-04-24T12:22:44;1.02;;;0.90;;
60464;SDS011;46314;52.392;9.758;2023-04-24T12:25:12;1.08;;;1.02;;
60464;SDS011;46314;52.392;9.758;2023-04-24T12:27:39;1.58;;;1.20;;
60464;SDS011;46314;52.392;9.758;2023-04-24T12:30:09;2.30;;;1.08;;
60464;SDS011;46314;52.392;9.758;2023-04-24T12:32:40;1.25;;;1.13;;
60464;SDS011;46314;52.392;9.758;2023-04-24T12:35:08;2.67;;;1.35;;
60464;SDS011;46314;52.392;9.758;2023-04-24T12:37:35;1.13;;;1.02;;
60464;SDS011;46314;52.392;9.758;2023-04-24T12:40:03;1.33;;;1.00;;
60464;SDS011;46314;52.392;9.758;2023-04-24T12:42:32;1.95;;;1.02;;
60464;SDS011;46314;52.392;9.758;2023-04-24T12:44:58;1.50;;;1.40;;
60464;SDS011;46314;52.392;9.758;2023-04-24T12:47:26;1.95;;;1.35;;
60464;SDS011;46314;52.392;9.758;2023-04-24T12:49:53;1.63;;;1.20;;
60464;SDS011;46314;52.392;9.758;2023-04-24T12:52:19;1.45;;;1.35;;
60464;SDS011;46314;52.392;9.758;2023-04-24T12:54:46;1.58;;;1.48;;
60464;SDS011;46314;52.392;9.758;2023-04-24T12:57:13;2.25;;;1.23;;
60464;SDS011;46314;52.392;9.758;2023-04-24T12:59:40;2.45;;;1.38;;
60464;SDS011;46314;52.392;9.758;2023-04-24T13:02:06;2.67;;;1.20;;
60464;SDS011;46314;52.392;9.758;2023-04-24T13:04:33;3.25;;;1.30;;
60464;SDS011;46314;52.392;9.758;2023-04-24T13:06:59;2.97;;;1.50;;
60464;SDS011;46314;52.392;9.758;2023-04-24T13:09:26;1.67;;;1.30;;
60464;SDS011;46314;52.392;9.758;2023-04-24T13:11:52;2.22;;;1.65;;
60464;SDS011;46314;52.392;9.758;2023-04-24T13:14:20;4.03;;;1.85;;
60464;SDS011;46314;52.392;9.758;2023-04-24T13:16:46;1.60;;;1.50;;
60464;SDS011;46314;52.392;9.758;2023-04-24T13:19:13;2.67;;;1.70;;
60464;SDS011;46314;52.392;9.758;2023-04-24T13:21:40;1.88;;;1.77;;
60464;SDS011;46314;52.392;9.758;2023-04-24T13:24:06;1.50;;;1.35;;
60464;SDS011;46314;52.392;9.758;2023-04-24T13:26:32;1.58;;;1.48;;
60464;SDS011;46314;52.392;9.758;2023-04-24T13:28:59;1.85;;;1.67;;
60464;SDS011;46314;52.392;9.758;2023-04-24T13:31:27;1.60;;;1.50;;
60464;SDS011;46314;52.392;9.758;2023-04-24T13:33:53;1.70;;;1.60;;
60464;SDS011;46314;52.392;9.758;2023-04-24T13:36:20;2.22;;;1.80;;
60464;SDS011;46314;52.392;9.758;2023-04-24T13:38:46;1.88;;;1.67;;
60464;SDS011;46314;52.392;9.758;2023-04-24T13:41:13;1.55;;;1.40;;
60464;SDS011;46314;52.392;9.758;2023-04-24T13:43:39;1.50;;;1.40;;
60464;SDS011;46314;52.392;9.758;2023-04-24T13:46:07;1.80;;;1.70;;
60464;SDS011;46314;52.392;9.758;2023-04-24T13:48:34;1.30;;;1.20;;
60464;SDS011;46314;52.392;9.758;2023-04-24T13:51:01;2.95;;;1.10;;
60464;SDS011;46314;52.392;9.758;2023-04-24T13:53:27;1.38;;;0.95;;
60464;SDS011;46314;52.392;9.758;2023-04-24T13:55:54;1.75;;;1.20;;
60464;SDS011;46314;52.392;9.758;2023-04-24T13:58:20;1.83;;;1.27;;
60464;SDS011;46314;52.392;9.758;2023-04-24T14:00:47;0.98;;;0.60;;
60464;SDS011;46314;52.392;9.758;2023-04-24T14:03:13;1.30;;;0.68;;
60464;SDS011;46314;52.392;9.758;2023-04-24T14:05:41;1.30;;;0.63;;
60464;SDS011;46314;52.392;9.758;2023-04-24T14:08:08;1.13;;;0.70;;
60464;SDS011;46314;52.392;9.758;2023-04-24T14:10:34;1.15;;;0.82;;
60464;SDS011;46314;52.392;9.758;2023-04-24T14:13:00;2.17;;;0.98;;
60464;SDS011;46314;52.392;9.758;2023-04-24T14:15:27;1.00;;;0.70;;
60464;SDS011;46314;52.392;9.758;2023-04-24T14:17:54;1.88;;;1.13;;
60464;SDS011;46314;52.392;9.758;2023-04-24T14:20:20;1.05;;;0.90;;
60464;SDS011;46314;52.392;9.758;2023-04-24T14:22:48;1.38;;;1.20;;
60464;SDS011;46314;52.392;9.758;2023-04-24T14:25:14;2.17;;;1.52;;
60464;SDS011;46314;52.392;9.758;2023-04-24T14:27:41;2.72;;;1.90;;
60464;SDS011;46314;52.392;9.758;2023-04-24T14:30:08;2.17;;;1.60;;
60464;SDS011;46314;52.392;9.758;2023-04-24T14:32:34;1.42;;;1.33;;
60464;SDS011;46314;52.392;9.758;2023-04-24T14:35:01;2.55;;;1.50;;
60464;SDS011;46314;52.392;9.758;2023-04-24T14:37:27;3.03;;;1.90;;
60464;SDS011;46314;52.392;9.758;2023-04-24T14:39:55;2.55;;;2.33;;
60464;SDS011;46314;52.392;9.758;2023-04-24T14:42:41;4.43;;;2.05;;
60464;SDS011;46314;52.392;9.758;2023-04-24T14:45:08;2.60;;;2.35;;
60464;SDS011;46314;52.392;9.758;2023-04-24T14:47:36;3.50;;;2.53;;
60464;SDS011;46314;52.392;9.758;2023-04-24T14:50:03;2.25;;;1.80;;
60464;SDS011;46314;52.392;9.758;2023-04-24T14:52:31;2.85;;;2.22;;
60464;SDS011;46314;52.392;9.758;2023-04-24T14:54:58;4.88;;;2.45;;